createdAt,value
2019-02-18T00:01:18.894Z,82.30
2019-02-18T00:03:47.462Z,82.30
2019-02-18T00:06:16.068Z,82.30
2019-02-18T00:08:46.066Z,82.40
2019-02-18T00:11:15.796Z,82.80
2019-02-18T00:13:44.373Z,83.00
2019-02-18T00:16:15.907Z,83.00
2019-02-18T00:18:44.712Z,83.30
2019-02-18T00:21:13.308Z,84.40
2019-02-18T00:24:01.156Z,84.90
2019-02-18T00:26:30.444Z,85.50
2019-02-18T00:28:58.971Z,87.00
2019-02-18T00:31:27.464Z,87.90
2019-02-18T00:34:04.399Z,88.60
2019-02-18T00:36:36.430Z,89.60
2019-02-18T00:39:08.502Z,90.40
2019-02-18T00:41:37.023Z,90.80
2019-02-18T00:44:09.012Z,91.50
2019-02-18T00:46:37.528Z,91.50
2019-02-18T00:49:07.530Z,91.60
2019-02-18T00:51:37.431Z,91.60
2019-02-18T00:54:08.773Z,91.10
2019-02-18T00:56:37.270Z,91.50
2019-02-18T00:59:07.375Z,91.40
2019-02-18T01:01:35.937Z,91.50
2019-02-18T01:04:04.755Z,91.70
2019-02-18T01:06:33.247Z,91.60
2019-02-18T01:09:01.819Z,91.70
2019-02-18T01:11:31.795Z,91.60
2019-02-18T01:14:00.395Z,91.70
2019-02-18T01:16:33.259Z,91.60
2019-02-18T01:19:01.885Z,91.50
2019-02-18T01:21:32.073Z,91.50
2019-02-18T01:24:00.581Z,91.40
2019-02-18T01:26:30.049Z,92.00
2019-02-18T01:29:04.139Z,92.50
2019-02-18T01:31:38.677Z,92.80
2019-02-18T01:34:08.653Z,93.00
2019-02-18T01:36:39.021Z,93.20
2019-02-18T01:39:07.516Z,93.40
2019-02-18T01:41:36.209Z,93.30
2019-02-18T01:44:04.977Z,93.70
2019-02-18T01:46:34.677Z,93.70
2019-02-18T01:49:06.961Z,93.90
2019-02-18T01:51:35.551Z,93.90
2019-02-18T01:54:04.257Z,94.00
2019-02-18T01:56:36.697Z,94.20
2019-02-18T01:59:05.167Z,94.60
2019-02-18T02:01:33.804Z,94.50
2019-02-18T02:04:06.608Z,94.70
2019-02-18T02:06:35.067Z,94.60
2019-02-18T02:09:06.373Z,94.70
2019-02-18T02:11:41.845Z,94.80
2019-02-18T02:14:10.559Z,94.90
2019-02-18T02:16:44.520Z,95.20
2019-02-18T02:19:16.005Z,95.40
2019-02-18T02:21:50.011Z,95.40
2019-02-18T02:24:18.765Z,95.80
2019-02-18T02:26:53.255Z,96.00
2019-02-18T02:29:30.604Z,96.10
2019-02-18T02:32:02.506Z,96.20
2019-02-18T02:34:31.127Z,96.40
2019-02-18T02:37:01.457Z,96.60
2019-02-18T02:39:30.109Z,96.90
2019-02-18T02:42:01.937Z,97.00
2019-02-18T02:44:31.905Z,97.20
2019-02-18T02:47:02.103Z,97.50
2019-02-18T02:49:32.774Z,97.70
2019-02-18T02:52:02.216Z,97.80
2019-02-18T02:54:38.269Z,98.00
2019-02-18T02:57:07.952Z,98.10
2019-02-18T02:59:36.662Z,98.30
2019-02-18T03:02:05.362Z,98.40
2019-02-18T03:04:35.450Z,98.80
2019-02-18T03:07:06.252Z,98.80
2019-02-18T03:09:37.566Z,98.80
2019-02-18T03:12:06.136Z,98.80
2019-02-18T03:14:36.089Z,98.80
2019-02-18T03:17:04.781Z,98.90
2019-02-18T03:19:34.244Z,98.80
2019-02-18T03:22:04.462Z,99.00
2019-02-18T03:24:34.596Z,99.00
2019-02-18T03:27:03.197Z,98.90
2019-02-18T03:29:57.648Z,99.00
2019-02-18T03:32:26.194Z,99.00
2019-02-18T03:34:55.157Z,99.50
2019-02-18T03:37:25.299Z,99.10
2019-02-18T03:39:53.908Z,99.00
2019-02-18T03:42:24.572Z,99.40
2019-02-18T03:44:59.464Z,99.30
2019-02-18T03:47:29.547Z,99.10
2019-02-18T03:49:58.201Z,99.30
2019-02-18T03:52:26.695Z,99.20
2019-02-18T03:54:59.585Z,99.30
2019-02-18T03:57:28.310Z,99.40
2019-02-18T03:59:56.882Z,99.60
2019-02-18T04:02:27.360Z,99.80
2019-02-18T04:04:57.895Z,99.90
2019-02-18T04:07:26.593Z,99.90
2019-02-18T04:09:56.601Z,99.90
2019-02-18T04:12:26.705Z,99.90
2019-02-18T04:14:56.228Z,99.90
2019-02-18T04:17:24.751Z,99.90
2019-02-18T04:19:57.259Z,99.90
2019-02-18T04:22:27.406Z,99.90
2019-02-18T04:24:56.867Z,99.90
2019-02-18T04:27:29.759Z,99.90
2019-02-18T04:29:58.321Z,99.90
2019-02-18T04:32:26.832Z,99.90
2019-02-18T04:34:55.345Z,99.90
2019-02-18T04:37:26.575Z,99.90
2019-02-18T04:39:56.603Z,99.90
2019-02-18T04:42:27.811Z,99.90
2019-02-18T04:44:58.213Z,99.90
2019-02-18T04:47:32.000Z,99.90
2019-02-18T04:50:00.515Z,99.90
2019-02-18T04:52:37.439Z,99.90
2019-02-18T04:55:09.952Z,99.90
2019-02-18T04:57:38.507Z,99.90
2019-02-18T05:00:10.381Z,99.90
2019-02-18T05:02:45.353Z,99.90
2019-02-18T05:05:15.883Z,99.90
2019-02-18T05:07:46.461Z,99.90
2019-02-18T05:10:16.207Z,99.90
2019-02-18T05:12:44.798Z,99.90
2019-02-18T05:15:17.537Z,99.90
2019-02-18T05:17:47.605Z,99.90
2019-02-18T05:20:16.108Z,99.90
2019-02-18T05:22:44.980Z,99.90
2019-02-18T05:25:13.572Z,99.90
2019-02-18T05:27:42.155Z,99.90
2019-02-18T05:30:12.422Z,99.70
2019-02-18T05:32:44.029Z,98.70
2019-02-18T05:35:15.153Z,98.10
2019-02-18T05:37:48.033Z,97.70
2019-02-18T05:40:15.454Z,97.30
2019-02-18T05:42:46.783Z,96.90
2019-02-18T05:45:15.318Z,96.50
2019-02-18T05:47:46.663Z,96.20
2019-02-18T05:50:15.238Z,96.60
2019-02-18T05:52:43.716Z,95.90
2019-02-18T05:55:13.279Z,95.80
2019-02-18T05:57:41.941Z,95.50
2019-02-18T06:00:13.222Z,95.30
2019-02-18T06:02:42.177Z,95.00
2019-02-18T06:05:12.283Z,94.80
2019-02-18T06:07:42.668Z,94.60
2019-02-18T06:10:13.939Z,94.60
2019-02-18T06:12:48.912Z,94.40
2019-02-18T06:15:21.483Z,94.40
2019-02-18T06:17:50.930Z,94.40
2019-02-18T06:20:23.948Z,94.10
2019-02-18T06:22:55.239Z,93.90
2019-02-18T06:25:23.761Z,93.80
2019-02-18T06:27:56.369Z,93.70
2019-02-18T06:30:26.748Z,93.50
2019-02-18T06:33:01.227Z,93.30
2019-02-18T06:35:31.219Z,93.10
2019-02-18T06:38:02.761Z,92.90
2019-02-18T06:40:31.296Z,92.80
2019-02-18T06:43:05.715Z,92.60
2019-02-18T06:45:52.848Z,92.50
2019-02-18T06:48:40.789Z,92.40
2019-02-18T06:51:17.083Z,92.20
2019-02-18T06:53:48.512Z,92.10
2019-02-18T06:56:18.654Z,92.10
2019-02-18T06:58:57.736Z,92.10
2019-02-18T07:01:36.340Z,92.00
2019-02-18T07:04:12.354Z,92.00
2019-02-18T07:06:42.453Z,92.10
2019-02-18T07:09:12.582Z,92.10
2019-02-18T07:11:46.770Z,92.10
2019-02-18T07:14:15.320Z,91.80
2019-02-18T07:16:45.054Z,91.70
2019-02-18T07:19:13.540Z,91.40
2019-02-18T07:21:45.872Z,91.50
2019-02-18T07:24:21.839Z,91.50
2019-02-18T07:26:56.754Z,91.50
2019-02-18T07:29:25.348Z,91.60
2019-02-18T07:31:55.332Z,91.60
2019-02-18T07:34:26.804Z,91.70
2019-02-18T07:37:14.734Z,91.70
2019-02-18T07:39:47.838Z,91.80
2019-02-18T07:42:17.515Z,91.20
2019-02-18T07:44:46.049Z,90.20
2019-02-18T07:47:16.927Z,90.10
2019-02-18T07:49:45.409Z,89.90
2019-02-18T07:52:17.549Z,89.00
2019-02-18T07:54:47.396Z,88.00
2019-02-18T07:57:15.907Z,88.10
2019-02-18T07:59:44.357Z,87.30
2019-02-18T08:02:17.031Z,86.90
2019-02-18T08:04:49.657Z,87.10
2019-02-18T08:07:28.051Z,85.20
2019-02-18T08:09:56.555Z,84.30
2019-02-18T08:12:25.019Z,82.60
2019-02-18T08:15:00.325Z,82.20
2019-02-18T08:17:28.813Z,81.90
2019-02-18T08:19:59.951Z,80.30
2019-02-18T08:22:28.449Z,79.10
2019-02-18T08:24:59.859Z,77.90
2019-02-18T08:27:29.885Z,77.20
2019-02-18T08:29:59.925Z,78.30
2019-02-18T08:32:32.589Z,78.80
2019-02-18T08:35:01.077Z,77.60
2019-02-18T08:37:33.341Z,77.00
2019-02-18T08:40:05.905Z,76.20
2019-02-18T08:42:34.597Z,72.90
2019-02-18T08:45:03.370Z,70.60
2019-02-18T08:47:31.939Z,70.10
2019-02-18T08:50:01.062Z,70.30
2019-02-18T08:52:29.527Z,70.50
2019-02-18T08:55:02.784Z,70.70
2019-02-18T08:57:30.977Z,70.80
2019-02-18T08:59:59.471Z,67.90
2019-02-18T09:02:28.883Z,66.50
2019-02-18T09:04:57.515Z,65.80
2019-02-18T09:07:28.752Z,64.80
2019-02-18T09:10:04.543Z,66.40
2019-02-18T09:12:34.541Z,66.60
2019-02-18T09:15:08.853Z,66.70
2019-02-18T09:17:39.983Z,63.70
2019-02-18T09:20:11.702Z,62.50
2019-02-18T09:22:41.936Z,63.50
2019-02-18T09:25:13.907Z,63.80
2019-02-18T09:27:42.639Z,63.60
2019-02-18T09:30:14.697Z,62.90
2019-02-18T09:32:43.432Z,61.80
2019-02-18T09:35:13.869Z,60.70
2019-02-18T09:37:42.110Z,60.60
2019-02-18T09:40:14.169Z,61.10
2019-02-18T09:42:45.100Z,61.30
2019-02-18T09:45:14.991Z,60.90
2019-02-18T09:47:47.287Z,60.50
2019-02-18T09:50:15.897Z,60.70
2019-02-18T09:52:44.407Z,60.40
2019-02-18T09:55:14.511Z,59.20
2019-02-18T09:57:43.009Z,58.80
2019-02-18T10:00:34.725Z,59.40
2019-02-18T10:03:05.411Z,59.00
2019-02-18T10:05:34.985Z,57.60
2019-02-18T10:08:09.138Z,58.10
2019-02-18T10:10:37.701Z,57.00
2019-02-18T10:13:06.390Z,56.70
2019-02-18T10:15:34.984Z,59.10
2019-02-18T10:18:03.616Z,58.80
2019-02-18T10:20:32.152Z,57.10
2019-02-18T10:23:05.914Z,57.50
2019-02-18T10:25:38.255Z,55.50
2019-02-18T10:28:06.884Z,54.70
2019-02-18T10:30:41.356Z,53.70
2019-02-18T10:33:10.891Z,53.80
2019-02-18T10:35:39.446Z,53.70
2019-02-18T10:38:07.940Z,53.80
2019-02-18T10:40:36.459Z,54.20
2019-02-18T10:43:06.644Z,53.70
2019-02-18T10:45:37.552Z,52.90
2019-02-18T10:48:08.951Z,54.80
2019-02-18T10:50:37.517Z,53.90
2019-02-18T10:53:06.052Z,52.70
2019-02-18T10:55:34.858Z,52.40
2019-02-18T10:58:06.743Z,52.90
2019-02-18T11:00:37.696Z,54.70
2019-02-18T11:04:24.204Z,58.80
2019-02-18T11:06:52.771Z,52.10
2019-02-18T11:09:21.306Z,52.10
2019-02-18T11:11:49.982Z,52.20
2019-02-18T11:14:19.657Z,54.00
2019-02-18T11:16:53.030Z,52.80
2019-02-18T11:19:22.810Z,50.10
2019-02-18T11:21:54.274Z,52.40
2019-02-18T11:24:22.820Z,52.60
2019-02-18T11:26:53.228Z,51.80
2019-02-18T11:29:21.771Z,50.90
2019-02-18T11:31:51.778Z,50.00
2019-02-18T11:34:25.114Z,51.10
2019-02-18T11:36:55.201Z,49.80
2019-02-18T11:39:27.596Z,49.60
2019-02-18T11:41:56.354Z,49.50
2019-02-18T11:44:24.911Z,49.80
2019-02-18T11:46:53.492Z,49.30
2019-02-18T11:49:23.215Z,50.70
2019-02-18T11:51:51.773Z,50.70
2019-02-18T11:54:22.220Z,49.30
2019-02-18T11:56:50.842Z,49.50
2019-02-18T11:59:24.518Z,49.40
2019-02-18T12:01:54.716Z,49.20
2019-02-18T12:04:29.391Z,50.10
2019-02-18T12:06:58.143Z,52.00
2019-02-18T12:09:29.237Z,51.40
2019-02-18T12:12:01.884Z,50.50
2019-02-18T12:14:31.603Z,50.40
2019-02-18T12:17:20.836Z,50.00
2019-02-18T12:19:50.709Z,49.70
2019-02-18T12:22:20.841Z,49.40
2019-02-18T12:24:52.031Z,49.50
2019-02-18T12:27:20.842Z,49.50
2019-02-18T12:29:53.399Z,49.70
2019-02-18T12:32:26.407Z,49.60
2019-02-18T12:35:04.200Z,49.70
2019-02-18T12:37:40.835Z,49.90
2019-02-18T12:40:14.025Z,50.00
2019-02-18T12:42:44.921Z,50.00
2019-02-18T12:45:13.887Z,49.90
2019-02-18T12:47:42.658Z,50.10
2019-02-18T12:50:13.839Z,50.30
2019-02-18T12:52:47.140Z,50.60
2019-02-18T12:55:18.143Z,49.20
2019-02-18T12:57:46.887Z,49.20
2019-02-18T13:00:18.988Z,50.10
2019-02-18T13:02:47.878Z,49.90
2019-02-18T13:05:17.881Z,50.00
2019-02-18T13:07:46.514Z,50.30
2019-02-18T13:10:16.737Z,48.10
2019-02-18T13:12:45.710Z,48.50
2019-02-18T13:15:18.435Z,45.80
2019-02-18T13:17:52.572Z,46.40
2019-02-18T13:23:10.470Z,47.40
2019-02-18T13:25:47.412Z,47.40
2019-02-18T13:28:14.354Z,47.40
2019-02-18T13:30:48.690Z,47.00
2019-02-18T13:33:20.398Z,47.20
2019-02-18T13:35:54.654Z,48.70
2019-02-18T13:38:24.774Z,48.00
2019-02-18T13:40:53.436Z,47.40
2019-02-18T13:43:22.050Z,48.10
2019-02-18T13:45:50.622Z,50.40
2019-02-18T13:48:22.134Z,47.60
2019-02-18T13:50:59.974Z,46.90
2019-02-18T13:53:31.114Z,47.50
2019-02-18T13:56:03.004Z,47.70
2019-02-18T13:58:33.205Z,46.50
2019-02-18T14:01:02.006Z,46.40
2019-02-18T14:03:31.822Z,46.40
2019-02-18T14:06:05.360Z,46.50
2019-02-18T14:08:35.643Z,46.80
2019-02-18T14:11:07.210Z,46.60
2019-02-18T14:13:35.750Z,45.90
2019-02-18T14:16:07.126Z,46.70
2019-02-18T14:18:37.329Z,47.60
2019-02-18T14:21:11.070Z,46.70
2019-02-18T14:23:39.906Z,46.80
2019-02-18T14:26:10.456Z,46.20
2019-02-18T14:28:39.454Z,45.10
2019-02-18T14:31:10.436Z,46.30
2019-02-18T14:33:38.958Z,46.50
2019-02-18T14:36:08.453Z,44.90
2019-02-18T14:38:36.959Z,44.90
2019-02-18T14:41:07.160Z,44.80
2019-02-18T14:43:36.233Z,43.90
2019-02-18T14:46:06.546Z,44.70
2019-02-18T14:48:35.161Z,44.50
2019-02-18T14:51:06.224Z,44.80
2019-02-18T14:53:36.396Z,45.00
2019-02-18T14:56:07.403Z,45.00
2019-02-18T14:58:37.698Z,44.70
2019-02-18T15:01:08.024Z,45.70
2019-02-18T15:03:40.294Z,45.70
2019-02-18T15:06:08.850Z,47.60
2019-02-18T15:08:37.484Z,46.60
2019-02-18T15:11:06.521Z,46.40
2019-02-18T15:13:36.084Z,45.90
2019-02-18T15:16:09.649Z,46.00
2019-02-18T15:18:38.308Z,47.20
2019-02-18T15:21:09.966Z,48.70
2019-02-18T15:23:39.860Z,48.70
2019-02-18T15:26:09.171Z,48.70
2019-02-18T15:28:40.627Z,48.50
2019-02-18T15:31:10.283Z,48.50
2019-02-18T15:33:44.975Z,48.50
2019-02-18T15:36:13.603Z,48.20
2019-02-18T15:38:44.535Z,48.20
2019-02-18T15:41:13.195Z,48.20
2019-02-18T15:43:43.459Z,48.10
2019-02-18T15:46:12.170Z,48.10
2019-02-18T15:48:43.572Z,48.10
2019-02-18T15:51:14.570Z,48.10
2019-02-18T15:53:44.275Z,48.00
2019-02-18T15:56:12.799Z,48.00
2019-02-18T15:58:41.349Z,47.90
2019-02-18T16:01:17.530Z,47.70
2019-02-18T16:03:46.125Z,47.70
2019-02-18T16:06:14.893Z,47.70
2019-02-18T16:08:45.605Z,47.70
2019-02-18T16:11:17.222Z,47.70
2019-02-18T16:13:45.866Z,48.20
2019-02-18T16:16:14.444Z,48.30
2019-02-18T16:18:45.622Z,49.30
2019-02-18T16:21:16.318Z,49.60
2019-02-18T16:23:46.830Z,49.60
2019-02-18T16:26:15.374Z,50.00
2019-02-18T16:28:50.093Z,50.50
2019-02-18T16:31:23.038Z,52.10
2019-02-18T16:33:58.402Z,52.50
2019-02-18T16:36:28.243Z,52.20
2019-02-18T16:38:57.229Z,51.50
2019-02-18T16:41:26.705Z,52.30
2019-02-18T16:43:55.422Z,56.80
2019-02-18T16:46:26.982Z,53.90
2019-02-18T16:48:55.858Z,55.70
2019-02-18T16:51:28.453Z,54.40
2019-02-18T16:53:57.095Z,55.00
2019-02-18T16:56:25.674Z,55.40
2019-02-18T16:58:54.276Z,55.80
2019-02-18T17:01:23.386Z,56.10
2019-02-18T17:03:52.900Z,56.80
2019-02-18T17:06:23.115Z,57.40
2019-02-18T17:08:51.722Z,57.20
2019-02-18T17:11:20.299Z,58.10
2019-02-18T17:13:50.050Z,58.50
2019-02-18T17:16:20.808Z,58.80
2019-02-18T17:18:50.444Z,58.60
2019-02-18T17:21:19.932Z,58.60
2019-02-18T17:23:54.790Z,59.20
2019-02-18T17:26:24.428Z,59.50
2019-02-18T17:28:54.914Z,60.40
2019-02-18T17:31:23.389Z,61.10
2019-02-18T17:33:51.932Z,61.80
2019-02-18T17:36:21.694Z,63.30
2019-02-18T17:38:50.396Z,64.10
2019-02-18T17:41:22.193Z,64.90
2019-02-18T17:43:51.403Z,66.00
2019-02-18T17:46:20.996Z,67.50
2019-02-18T17:48:51.295Z,67.50
2019-02-18T17:51:22.874Z,66.60
2019-02-18T17:53:51.726Z,66.50
2019-02-18T17:56:20.319Z,67.20
2019-02-18T17:58:53.100Z,67.80
2019-02-18T18:01:28.776Z,70.70
2019-02-18T18:03:58.512Z,71.80
2019-02-18T18:06:28.762Z,71.50
2019-02-18T18:08:58.393Z,71.30
2019-02-18T18:11:27.439Z,71.20
2019-02-18T18:13:56.049Z,71.10
2019-02-18T18:16:28.163Z,72.30
2019-02-18T18:18:56.863Z,73.40
2019-02-18T18:21:26.936Z,74.60
2019-02-18T18:23:57.938Z,75.50
2019-02-18T18:26:26.574Z,75.60
2019-02-18T18:28:57.446Z,76.60
2019-02-18T18:31:27.080Z,76.50
2019-02-18T18:33:56.484Z,77.40
2019-02-18T18:36:24.962Z,77.90
2019-02-18T18:38:54.273Z,78.40
2019-02-18T18:41:25.783Z,77.40
2019-02-18T18:43:57.601Z,77.20
2019-02-18T18:46:26.311Z,77.60
2019-02-18T18:48:59.199Z,78.00
2019-02-18T18:51:33.854Z,77.50
2019-02-18T18:54:02.556Z,77.30
2019-02-18T18:56:32.498Z,77.20
2019-02-18T18:59:04.911Z,77.20
2019-02-18T19:01:33.651Z,76.50
2019-02-18T19:04:02.208Z,76.30
2019-02-18T19:06:30.967Z,76.60
2019-02-18T19:09:00.923Z,76.50
2019-02-18T19:11:30.785Z,75.80
2019-02-18T19:14:01.417Z,75.50
2019-02-18T19:16:30.123Z,75.50
2019-02-18T19:19:00.244Z,75.50
2019-02-18T19:21:32.567Z,75.40
2019-02-18T19:24:01.463Z,76.50
2019-02-18T19:26:31.194Z,75.60
2019-02-18T19:28:59.713Z,75.70
2019-02-18T19:31:29.507Z,75.90
2019-02-18T19:33:58.299Z,76.10
2019-02-18T19:36:29.905Z,76.00
2019-02-18T19:38:59.852Z,76.40
2019-02-18T19:41:30.307Z,76.80
2019-02-18T19:43:59.881Z,77.00
2019-02-18T19:46:28.685Z,77.00
2019-02-18T19:48:57.767Z,77.20
2019-02-18T19:51:26.454Z,77.70
2019-02-18T19:53:56.257Z,77.90
2019-02-18T19:56:26.328Z,78.30
2019-02-18T19:58:56.348Z,78.30
2019-02-18T20:01:34.922Z,78.70
2019-02-18T20:04:06.262Z,79.10
2019-02-18T20:06:43.919Z,79.20
2019-02-18T20:09:14.102Z,79.20
2019-02-18T20:11:44.596Z,79.50
2019-02-18T20:14:15.449Z,79.60
2019-02-18T20:16:50.066Z,79.70
2019-02-18T20:19:18.747Z,79.80
2019-02-18T20:21:49.944Z,80.20
2019-02-18T20:24:18.878Z,80.40
2019-02-18T20:26:48.595Z,80.40
2019-02-18T20:29:17.112Z,80.50
2019-02-18T20:31:45.696Z,80.60
2019-02-18T20:34:16.679Z,80.60
2019-02-18T20:36:47.662Z,80.80
2019-02-18T20:39:16.498Z,80.80
2019-02-18T20:41:46.024Z,81.10
2019-02-18T20:44:14.537Z,81.60
2019-02-18T20:46:46.127Z,81.60
2019-02-18T20:49:17.693Z,82.00
2019-02-18T20:51:47.040Z,82.00
2019-02-18T20:54:19.778Z,81.70
2019-02-18T20:56:48.276Z,81.80
2019-02-18T20:59:16.830Z,82.00
2019-02-18T21:01:48.251Z,82.10
2019-02-18T21:04:21.195Z,83.50
2019-02-18T21:06:52.468Z,83.60
2019-02-18T21:09:23.122Z,84.20
2019-02-18T21:11:54.516Z,84.30
2019-02-18T21:14:23.106Z,84.10
2019-02-18T21:16:52.981Z,84.10
2019-02-18T21:19:22.669Z,84.60
2019-02-18T21:21:57.148Z,84.80
2019-02-18T21:24:30.199Z,85.20
2019-02-18T21:27:01.984Z,85.50
2019-02-18T21:29:31.971Z,85.60
2019-02-18T21:32:03.673Z,85.60
2019-02-18T21:34:33.173Z,85.80
2019-02-18T21:37:01.693Z,86.10
2019-02-18T21:39:31.788Z,86.40
2019-02-18T21:42:00.333Z,87.00
2019-02-18T21:44:28.862Z,87.00
2019-02-18T21:46:58.349Z,87.20
2019-02-18T21:49:28.495Z,87.70
2019-02-18T21:51:57.030Z,88.20
2019-02-18T21:54:25.556Z,88.20
2019-02-18T21:56:54.951Z,89.10
2019-02-18T21:59:23.477Z,89.40
2019-02-18T22:01:52.205Z,90.00
2019-02-18T22:04:21.585Z,90.10
2019-02-18T22:06:56.283Z,90.30
2019-02-18T22:09:27.837Z,90.40
2019-02-18T22:11:56.291Z,90.50
2019-02-18T22:14:33.276Z,90.70
2019-02-18T22:17:00.819Z,91.00
2019-02-18T22:19:29.283Z,91.10
2019-02-18T22:21:58.872Z,91.30
2019-02-18T22:24:27.413Z,91.30
2019-02-18T22:27:00.203Z,91.50
2019-02-18T22:29:29.339Z,91.60
2019-02-18T22:31:58.065Z,91.90
2019-02-18T22:34:27.419Z,91.90
2019-02-18T22:36:58.980Z,91.80
2019-02-18T22:39:27.563Z,92.20
2019-02-18T22:41:59.732Z,92.50
2019-02-18T22:44:31.215Z,92.60
2019-02-18T22:46:59.668Z,92.70
2019-02-18T22:49:28.363Z,92.70
2019-02-18T22:51:58.417Z,92.60
2019-02-18T22:54:29.454Z,92.60
2019-02-18T22:56:58.000Z,92.60
2019-02-18T22:59:29.802Z,92.70
2019-02-18T23:01:58.381Z,92.60
2019-02-18T23:04:31.005Z,92.60
2019-02-18T23:07:00.388Z,92.60
2019-02-18T23:09:29.059Z,92.60
2019-02-18T23:12:02.264Z,92.60
2019-02-18T23:14:33.453Z,92.60
2019-02-18T23:17:02.132Z,92.50
2019-02-18T23:19:30.754Z,92.60
2019-02-18T23:21:59.608Z,92.50
2019-02-18T23:24:32.474Z,92.50
2019-02-18T23:27:01.003Z,92.70
2019-02-18T23:29:33.124Z,93.20
2019-02-18T23:32:01.662Z,93.60
2019-02-18T23:34:32.884Z,94.40
2019-02-18T23:37:01.458Z,94.00
2019-02-18T23:39:30.192Z,94.30
2019-02-18T23:41:58.658Z,94.40
2019-02-18T23:44:27.513Z,94.70
2019-02-18T23:46:56.046Z,95.00
2019-02-18T23:49:24.536Z,95.20
2019-02-18T23:51:53.040Z,95.40
2019-02-18T23:54:21.539Z,95.70
2019-02-18T23:56:50.079Z,96.00
2019-02-18T23:59:18.582Z,96.20
